Time;durP1;ratioP1;P1;durP2;ratioP2;P2;SDS_P1;SDS_P2;PMS_P1;PMS_P2;Temp;Humidity;BMP_temperature;BMP_pressure;BME280_temperature;BME280_humidity;BME280_pressure;Samples;Min_cycle;Max_cycle;Signal;HPM_P1;HPM_P2
2023/12/27 00:00:10;;;;;;;4.22;3.42;;;8.50;99.90;;;8.52;100.00;101187.22;4873035;28;24430;-68
2023/12/27 00:02:32;;;;;;;3.50;3.20;;;8.50;99.90;;;8.49;100.00;101195.19;4869497;28;24447;-67
2023/12/27 00:04:54;;;;;;;3.40;3.10;;;8.40;99.90;;;8.45;100.00;101201.47;4873008;28;24443;-67
2023/12/27 00:07:16;;;;;;;3.80;3.15;;;8.40;99.90;;;8.45;100.00;101204.06;4860117;28;24444;-68
2023/12/27 00:09:38;;;;;;;3.40;3.10;;;8.30;99.90;;;8.41;100.00;101204.34;4869516;28;24435;-65
2023/12/27 00:12:00;;;;;;;4.70;3.40;;;8.30;99.90;;;8.43;100.00;101207.69;4868308;28;24435;-67
2023/12/27 00:14:22;;;;;;;4.30;3.20;;;8.40;99.90;;;8.48;100.00;101206.50;4872992;28;25208;-68
2023/12/27 00:16:44;;;;;;;3.30;3.10;;;8.40;99.90;;;8.54;100.00;101200.13;4862390;28;24932;-68
2023/12/27 00:19:06;;;;;;;4.05;3.38;;;8.40;99.90;;;8.56;100.00;101204.31;4875886;28;24434;-67
2023/12/27 00:21:28;;;;;;;3.60;3.10;;;8.50;99.90;;;8.59;100.00;101200.72;4870596;28;20796;-67
2023/12/27 00:23:50;;;;;;;3.47;3.10;;;8.50;99.90;;;8.62;100.00;101194.50;4874825;28;25004;-67
2023/12/27 00:26:13;;;;;;;3.60;3.30;;;8.50;99.90;;;8.67;100.00;101185.53;4870858;28;25034;-66
2023/12/27 00:28:35;;;;;;;4.15;3.10;;;8.60;99.90;;;8.71;100.00;101186.22;4876528;28;24852;-69
2023/12/27 00:30:57;;;;;;;3.70;3.40;;;8.60;99.90;;;8.75;100.00;101185.13;4872686;28;24487;-65
2023/12/27 00:33:19;;;;;;;4.03;3.40;;;8.60;99.90;;;8.80;100.00;101185.69;4863669;28;24489;-68
2023/12/27 00:35:41;;;;;;;4.00;3.40;;;8.60;99.90;;;8.86;100.00;101188.78;4876075;28;24423;-67
2023/12/27 00:38:03;;;;;;;3.50;3.23;;;8.70;99.90;;;8.91;100.00;101197.19;4863928;28;24612;-66
2023/12/27 00:40:25;;;;;;;3.38;3.08;;;8.80;99.90;;;8.98;100.00;101197.69;4866764;28;24465;-67
2023/12/27 00:42:47;;;;;;;3.13;2.83;;;8.80;99.90;;;9.02;100.00;101205.22;4875744;28;24431;-67
2023/12/27 00:45:09;;;;;;;3.50;3.20;;;8.90;99.90;;;9.06;100.00;101198.91;4863269;28;24460;-65
2023/12/27 00:47:31;;;;;;;2.95;2.75;;;8.90;99.90;;;9.01;100.00;101197.47;4868573;28;24876;-66
2023/12/27 00:49:53;;;;;;;3.60;2.70;;;8.90;99.90;;;8.98;100.00;101202.88;4866631;28;24968;-66
2023/12/27 00:52:15;;;;;;;3.10;2.90;;;8.90;99.90;;;8.94;100.00;101202.22;4868079;28;25013;-68
2023/12/27 00:54:38;;;;;;;3.10;2.80;;;8.80;99.90;;;8.95;100.00;101190.88;4858581;28;24526;-65
2023/12/27 00:57:00;;;;;;;3.40;2.85;;;8.80;99.90;;;8.93;100.00;101190.13;4863255;28;25283;-66
2023/12/27 00:59:22;;;;;;;3.00;2.80;;;8.80;99.90;;;8.89;100.00;101191.22;4874708;28;24427;-65
2023/12/27 01:01:44;;;;;;;3.90;3.50;;;8.80;99.90;;;8.84;100.00;101203.63;4860842;28;24550;-67
2023/12/27 01:04:06;;;;;;;3.30;3.10;;;8.70;99.90;;;8.88;100.00;101205.16;4859271;28;24490;-66
2023/12/27 01:06:28;;;;;;;3.30;3.00;;;8.80;99.90;;;8.96;100.00;101212.53;4860788;28;24485;-67
2023/12/27 01:08:50;;;;;;;4.10;2.97;;;8.80;99.90;;;9.02;100.00;101217.41;4855857;28;24555;-67
2023/12/27 01:11:12;;;;;;;3.20;2.90;;;8.80;99.90;;;9.07;100.00;101211.00;4869377;28;24486;-65
2023/12/27 01:13:34;;;;;;;3.47;3.00;;;8.90;99.90;;;9.01;100.00;101202.69;4870464;28;24542;-66
2023/12/27 01:15:58;;;;;;;2.85;2.65;;;8.90;99.90;;;8.99;100.00;101202.78;4867559;28;24510;-66
2023/12/27 01:18:20;;;;;;;4.13;2.70;;;8.90;99.90;;;8.95;100.00;101198.69;4862266;28;24455;-65
2023/12/27 01:20:43;;;;;;;3.50;2.72;;;8.80;99.90;;;8.93;100.00;101203.13;4868485;28;24432;-65
2023/12/27 01:23:04;;;;;;;2.97;2.70;;;8.80;99.90;;;8.89;100.00;101208.59;4868609;28;24459;-66
2023/12/27 01:25:26;;;;;;;4.33;2.80;;;8.80;99.90;;;8.88;100.00;101210.34;4869679;28;24586;-66
2023/12/27 01:27:48;;;;;;;3.03;2.72;;;8.80;99.90;;;8.75;100.00;101209.38;4876260;28;24490;-67
2023/12/27 01:30:14;;;;;;;3.05;2.50;;;8.70;99.90;;;8.74;100.00;101206.84;4870356;28;24454;-66
2023/12/27 01:32:36;;;;;;;2.80;2.60;;;8.70;99.90;;;8.73;100.00;101212.97;4871791;28;24432;-66
2023/12/27 01:34:58;;;;;;;3.13;2.72;;;8.60;99.90;;;8.74;100.00;101204.22;4875208;28;24455;-67
2023/12/27 01:37:20;;;;;;;3.53;2.60;;;8.60;99.90;;;8.76;100.00;101208.44;4875862;28;24893;-67
2023/12/27 01:39:42;;;;;;;3.20;2.90;;;8.60;99.90;;;8.77;100.00;101202.31;4874500;28;24514;-70
2023/12/27 01:42:04;;;;;;;2.97;2.67;;;8.70;99.90;;;8.76;100.00;101199.78;4874328;28;24430;-67
2023/12/27 01:44:26;;;;;;;2.60;2.40;;;8.60;99.90;;;8.79;100.00;101199.63;4869105;28;24995;-67
2023/12/27 01:46:48;;;;;;;2.67;2.40;;;8.60;99.90;;;8.78;100.00;101201.38;4874915;28;24526;-67
2023/12/27 01:49:10;;;;;;;2.63;2.40;;;8.60;99.90;;;8.78;100.00;101203.13;4867292;28;24475;-68
2023/12/27 01:51:32;;;;;;;2.85;2.65;;;8.70;99.90;;;8.75;100.00;101198.13;4839797;28;24435;-67
2023/12/27 01:53:56;;;;;;;2.80;2.60;;;8.60;99.90;;;8.75;100.00;101198.13;4847883;28;24428;-67
2023/12/27 01:56:19;;;;;;;2.65;2.30;;;8.60;99.90;;;8.76;100.00;101210.19;4855109;28;24821;-67
2023/12/27 01:58:41;;;;;;;4.20;2.67;;;8.70;99.90;;;8.80;100.00;101199.53;4877405;28;24481;-67
2023/12/27 02:01:03;;;;;;;2.50;2.30;;;8.70;99.90;;;8.84;100.00;101208.03;4867220;28;24506;-69
2023/12/27 02:03:25;;;;;;;3.00;2.50;;;8.70;99.90;;;8.85;100.00;101212.28;4858778;28;25001;-69
2023/12/27 02:05:49;;;;;;;3.20;2.80;;;8.70;99.90;;;8.85;100.00;101213.13;4874630;28;24465;-68
2023/12/27 02:08:13;;;;;;;2.80;2.60;;;8.70;99.90;;;8.86;100.00;101214.81;4849491;28;24931;-68
2023/12/27 02:10:35;;;;;;;3.80;2.70;;;8.80;99.90;;;8.90;100.00;101213.69;4859096;28;25232;-67
2023/12/27 02:13:04;;;;;;;2.53;2.43;;;8.80;99.90;;;8.92;100.00;101214.44;4853216;28;24573;-67
2023/12/27 02:15:26;;;;;;;2.60;2.40;;;8.80;99.90;;;8.93;100.00;101220.50;4856739;28;24455;-67
2023/12/27 02:17:49;;;;;;;3.05;2.65;;;8.80;99.90;;;8.88;100.00;101220.75;4873260;28;24845;-67
2023/12/27 02:20:12;;;;;;;2.80;2.60;;;8.80;99.90;;;8.89;100.00;101217.25;4858155;28;24439;-66
2023/12/27 02:22:35;;;;;;;2.63;2.20;;;8.80;99.90;;;8.91;100.00;101214.56;4866794;28;24490;-67
2023/12/27 02:24:57;;;;;;;2.60;2.40;;;8.80;99.90;;;8.91;100.00;101212.78;4848251;28;24534;-68
2023/12/27 02:27:20;;;;;;;2.95;2.60;;;8.80;99.90;;;8.88;100.00;101207.75;4874365;28;24518;-66
2023/12/27 02:29:42;;;;;;;2.83;2.40;;;8.80;99.90;;;8.84;100.00;101201.03;4872380;28;24431;-66
2023/12/27 02:32:04;;;;;;;2.90;2.70;;;8.80;99.90;;;8.81;100.00;101196.03;4857007;28;24476;-67
2023/12/27 02:34:26;;;;;;;3.58;2.60;;;8.70;99.90;;;8.82;100.00;101189.88;4873190;28;24571;-67
2023/12/27 02:36:48;;;;;;;2.28;2.17;;;8.70;99.90;;;8.84;100.00;101195.03;4859719;28;25008;-66
2023/12/27 02:39:10;;;;;;;2.67;2.47;;;8.70;99.90;;;8.87;100.00;101190.47;4870006;28;24510;-67
2023/12/27 02:41:32;;;;;;;2.60;2.40;;;8.70;99.90;;;8.87;100.00;101187.88;4865114;28;25106;-67
2023/12/27 02:43:54;;;;;;;2.63;2.42;;;8.70;99.90;;;8.86;100.00;101185.38;4874259;28;25024;-66
2023/12/27 02:46:16;;;;;;;2.60;2.40;;;8.70;99.90;;;8.84;100.00;101188.03;4859833;28;24482;-67
2023/12/27 02:48:38;;;;;;;2.92;2.53;;;8.80;99.90;;;8.85;100.00;101181.06;4875136;28;24514;-67
2023/12/27 02:51:00;;;;;;;3.20;2.40;;;8.70;99.90;;;8.83;100.00;101181.16;4874788;28;24455;-67
2023/12/27 02:53:23;;;;;;;2.70;2.50;;;8.70;99.90;;;8.81;100.00;101166.56;4860334;28;24447;-66
2023/12/27 02:55:45;;;;;;;3.83;2.50;;;8.70;99.90;;;8.77;100.00;101167.66;4867364;28;25030;-67
2023/12/27 02:58:07;;;;;;;2.60;2.40;;;8.70;99.90;;;8.74;100.00;101167.81;4864139;28;25070;-66
2023/12/27 03:00:34;;;;;;;2.63;2.42;;;8.60;99.90;;;8.73;100.00;101174.78;4867747;28;24438;-66
2023/12/27 03:02:57;;;;;;;2.50;2.30;;;8.70;99.90;;;8.72;100.00;101167.06;4861874;28;25004;-66
2023/12/27 03:05:19;;;;;;;3.60;2.50;;;8.60;99.90;;;8.74;100.00;101163.44;4870970;28;24450;-67
2023/12/27 03:07:41;;;;;;;3.22;2.60;;;8.60;99.90;;;8.77;100.00;101163.28;4866489;28;24444;-66
2023/12/27 03:10:03;;;;;;;3.60;3.30;;;8.60;99.90;;;8.79;100.00;101155.41;4862249;28;24523;-66
2023/12/27 03:12:25;;;;;;;5.00;2.75;;;8.70;99.90;;;8.80;100.00;101159.66;4861527;28;24848;-66
2023/12/27 03:14:47;;;;;;;4.43;2.90;;;8.70;99.90;;;8.78;100.00;101161.50;4871903;28;24529;-69
2023/12/27 03:17:09;;;;;;;3.00;2.70;;;8.70;99.90;;;8.79;100.00;101152.78;4868146;28;24539;-66
2023/12/27 03:19:31;;;;;;;3.20;2.90;;;8.70;99.90;;;8.81;100.00;101156.16;4873000;28;25048;-67
2023/12/27 03:21:53;;;;;;;3.53;3.17;;;8.70;99.90;;;8.82;100.00;101157.81;4873008;28;25038;-66
2023/12/27 03:24:15;;;;;;;4.10;2.90;;;8.70;99.90;;;8.84;100.00;101150.78;4868806;28;24471;-66
2023/12/27 03:26:37;;;;;;;4.13;3.30;;;8.70;99.90;;;8.86;100.00;101148.94;4874653;28;24477;-66
2023/12/27 03:28:59;;;;;;;2.83;2.60;;;8.80;99.90;;;8.90;100.00;101143.44;4874281;28;25043;-67
2023/12/27 03:31:28;;;;;;;3.70;2.97;;;8.80;99.90;;;8.73;100.00;101143.56;4870278;28;24497;-67
2023/12/27 03:33:50;;;;;;;5.30;3.40;;;8.70;99.90;;;8.73;100.00;101148.75;4867036;28;24534;-66
2023/12/27 03:36:12;;;;;;;5.50;3.30;;;8.70;99.90;;;8.74;100.00;101144.41;4864041;28;24509;-67
2023/12/27 03:38:34;;;;;;;6.85;3.25;;;8.60;99.90;;;8.73;100.00;101142.72;4873329;28;24478;-66
2023/12/27 03:40:56;;;;;;;7.47;3.58;;;8.60;99.90;;;8.68;100.00;101140.38;4864462;28;24535;-66
2023/12/27 03:43:18;;;;;;;5.13;3.30;;;8.60;99.90;;;8.59;100.00;101140.91;4871321;28;24428;-66
2023/12/27 03:45:40;;;;;;;7.45;3.55;;;8.60;99.90;;;8.61;100.00;101144.25;4862248;28;24506;-66
2023/12/27 03:48:03;;;;;;;4.70;3.92;;;8.60;99.90;;;8.62;100.00;101140.72;4869993;28;24889;-66
2023/12/27 03:50:25;;;;;;;4.30;3.20;;;8.60;99.90;;;8.61;100.00;101131.25;4864224;28;24434;-67
2023/12/27 03:52:47;;;;;;;5.47;3.58;;;8.50;99.90;;;8.60;100.00;101137.38;4864187;28;24485;-65
2023/12/27 03:55:10;;;;;;;5.72;3.80;;;8.50;99.90;;;8.64;100.00;101135.44;4877484;28;24462;-66
2023/12/27 03:57:32;;;;;;;6.05;3.58;;;8.50;99.90;;;8.67;100.00;101135.28;4878383;28;24482;-66
2023/12/27 03:59:54;;;;;;;4.57;3.90;;;8.50;99.90;;;8.69;100.00;101130.81;4870575;28;24777;-65
2023/12/27 04:02:16;;;;;;;5.40;3.50;;;8.60;99.90;;;8.71;100.00;101131.59;4863518;28;24529;-66
2023/12/27 04:04:39;;;;;;;5.03;3.90;;;8.60;99.90;;;8.65;100.00;101132.75;4867765;28;24473;-71
2023/12/27 04:07:00;;;;;;;6.13;4.00;;;8.60;99.90;;;8.67;100.00;101133.50;4866125;28;25011;-67
2023/12/27 04:09:22;;;;;;;5.32;3.70;;;8.50;99.90;;;8.65;100.00;101129.28;4873469;28;24528;-66
2023/12/27 04:11:45;;;;;;;5.70;3.70;;;8.60;99.90;;;8.71;100.00;101126.38;4867791;28;24447;-66
2023/12/27 04:14:07;;;;;;;4.38;3.58;;;8.60;99.90;;;8.69;100.00;101116.03;4877255;28;24434;-65
2023/12/27 04:16:29;;;;;;;5.90;4.00;;;8.60;99.90;;;8.66;100.00;101121.44;4874698;28;24666;-66
2023/12/27 04:18:51;;;;;;;4.95;3.65;;;8.60;99.90;;;8.67;100.00;101123.09;4875287;28;25063;-66
2023/12/27 04:21:13;;;;;;;5.13;3.80;;;8.50;99.90;;;8.67;100.00;101125.69;4876986;28;24501;-70
2023/12/27 04:23:35;;;;;;;6.07;3.87;;;8.60;99.90;;;8.69;100.00;101123.84;4875763;28;24439;-67
2023/12/27 04:25:57;;;;;;;4.72;3.50;;;8.60;99.90;;;8.68;100.00;101123.94;4870962;28;25012;-66
2023/12/27 04:28:19;;;;;;;4.28;3.40;;;8.60;99.90;;;8.66;100.00;101131.84;4878022;28;24489;-65
2023/12/27 04:30:41;;;;;;;6.40;3.90;;;8.60;99.90;;;8.69;100.00;101130.81;4876663;28;24432;-67
2023/12/27 04:33:03;;;;;;;6.05;3.60;;;8.60;99.90;;;8.69;100.00;101136.84;4869691;28;25435;-65
2023/12/27 04:35:25;;;;;;;6.80;3.70;;;8.60;99.90;;;8.72;100.00;101130.63;4875940;28;25315;-66
2023/12/27 04:37:47;;;;;;;8.10;3.88;;;8.60;99.90;;;8.68;100.00;101123.94;4875842;28;24481;-67
2023/12/27 04:40:10;;;;;;;7.97;4.00;;;8.60;99.90;;;8.64;100.00;101133.69;4868336;28;24981;-67
2023/12/27 04:42:32;;;;;;;5.85;3.92;;;8.60;99.90;;;8.69;100.00;101130.81;4876203;28;24455;-68
2023/12/27 04:44:54;;;;;;;5.72;4.20;;;8.60;99.90;;;8.66;100.00;101133.59;4872094;28;24523;-67
2023/12/27 04:47:16;;;;;;;5.55;3.92;;;8.60;99.90;;;8.64;100.00;101136.28;4864058;28;25122;-67
2023/12/27 04:49:38;;;;;;;7.32;4.13;;;8.50;99.90;;;8.62;100.00;101140.72;4876073;28;24459;-67
2023/12/27 04:52:01;;;;;;;6.00;3.90;;;8.50;99.90;;;8.62;100.00;101140.72;4875471;28;24462;-67
2023/12/27 04:54:23;;;;;;;6.43;4.35;;;8.50;99.90;;;8.57;100.00;101135.78;4870343;28;24908;-68
2023/12/27 04:56:45;;;;;;;7.63;4.05;;;8.50;99.90;;;8.56;100.00;101136.69;4861200;28;24490;-66
2023/12/27 04:59:07;;;;;;;7.80;4.47;;;8.50;99.90;;;8.53;100.00;101142.09;4872482;28;24511;-67
2023/12/27 05:01:29;;;;;;;7.00;4.30;;;8.50;99.90;;;8.47;100.00;101141.59;4872086;28;24465;-68
2023/12/27 05:03:51;;;;;;;9.32;4.10;;;8.40;99.90;;;8.51;100.00;101140.47;4864338;28;24995;-67
2023/12/27 05:06:13;;;;;;;5.80;4.30;;;8.40;99.90;;;8.48;100.00;101136.28;4864205;28;24490;-67
2023/12/27 05:08:38;;;;;;;8.38;4.40;;;8.40;99.90;;;8.45;100.00;101138.22;4867361;28;24515;-65
2023/12/27 05:11:00;;;;;;;7.10;4.13;;;8.40;99.90;;;8.45;100.00;101133.03;4874826;28;20758;-66
2023/12/27 05:13:22;;;;;;;6.13;4.47;;;8.40;99.90;;;8.47;100.00;101121.63;4865214;28;24477;-68
2023/12/27 05:15:46;;;;;;;9.77;4.55;;;8.40;99.90;;;8.51;100.00;101123.13;4868942;28;25142;-70
2023/12/27 05:18:08;;;;;;;6.75;4.20;;;8.40;99.90;;;8.46;100.00;101117.31;4861782;28;24486;-66
2023/12/27 05:20:31;;;;;;;6.03;3.75;;;8.40;99.90;;;8.46;100.00;101122.53;4865693;28;24805;-66
2023/12/27 05:22:52;;;;;;;4.53;3.58;;;8.40;99.90;;;8.47;100.00;101120.78;4875706;28;24894;-67
2023/12/27 05:25:14;;;;;;;6.05;3.90;;;8.40;99.90;;;8.49;100.00;101113.72;4876268;28;24554;-65
2023/12/27 05:27:36;;;;;;;6.70;4.20;;;8.40;99.90;;;8.41;100.00;101098.53;4867204;28;24530;-66
2023/12/27 05:29:59;;;;;;;5.05;3.75;;;8.40;99.90;;;8.41;100.00;101095.94;4873756;28;24438;-67
2023/12/27 05:32:21;;;;;;;6.72;4.00;;;8.30;99.90;;;8.37;100.00;101103.97;4864547;28;24848;-67
2023/12/27 05:34:43;;;;;;;4.63;3.50;;;8.30;99.90;;;8.45;100.00;101101.81;4875376;28;25056;-67
2023/12/27 05:37:05;;;;;;;5.90;3.50;;;8.30;99.90;;;8.48;100.00;101097.28;4875159;28;24431;-70
2023/12/27 05:39:27;;;;;;;5.15;4.28;;;8.40;99.90;;;8.45;100.00;101096.63;4873557;28;25020;-66
2023/12/27 05:41:49;;;;;;;5.77;3.93;;;8.40;99.90;;;8.46;100.00;101093.91;4857283;28;24424;-66
2023/12/27 05:44:11;;;;;;;6.28;3.90;;;8.40;99.90;;;8.50;100.00;101091.97;4872403;28;24888;-66
2023/12/27 05:46:34;;;;;;;6.50;3.70;;;8.40;99.90;;;8.47;100.00;101085.22;4863419;28;24530;-66
2023/12/27 05:48:57;;;;;;;5.55;3.30;;;8.40;99.90;;;8.42;100.00;101089.81;4869986;28;24431;-66
2023/12/27 05:51:19;;;;;;;5.63;3.33;;;8.40;99.90;;;8.48;100.00;101078.22;4874416;28;24997;-66
2023/12/27 05:53:41;;;;;;;4.90;3.55;;;8.40;99.90;;;8.53;100.00;101078.81;4867503;28;25030;-67
2023/12/27 05:56:03;;;;;;;4.80;3.58;;;8.40;99.90;;;8.56;100.00;101076.88;4875423;28;25070;-68
2023/12/27 05:58:26;;;;;;;8.30;3.60;;;8.40;99.90;;;8.54;100.00;101086.53;4860772;28;24554;-69
2023/12/27 06:00:48;;;;;;;3.13;2.83;;;8.40;99.90;;;8.56;100.00;101097.69;4873342;28;24537;-67
2023/12/27 06:03:10;;;;;;;5.38;3.50;;;8.50;99.90;;;8.58;100.00;101089.81;4859215;28;24538;-66
2023/12/27 06:05:32;;;;;;;6.50;4.20;;;8.50;99.90;;;8.55;100.00;101092.56;4865026;28;25046;-66
2023/12/27 06:07:54;;;;;;;4.10;3.37;;;8.50;99.90;;;8.57;100.00;101093.31;4874130;28;24807;-66
2023/12/27 06:10:18;;;;;;;4.75;3.30;;;8.50;99.90;;;8.52;100.00;101093.56;4868409;28;24471;-66
2023/12/27 06:12:40;;;;;;;4.70;3.10;;;8.40;99.90;;;8.56;100.00;101109.88;4874069;28;24477;-68
2023/12/27 06:15:03;;;;;;;5.78;3.30;;;8.50;99.90;;;8.57;100.00;101116.72;4865191;28;24532;-66
2023/12/27 06:17:25;;;;;;;4.35;3.50;;;8.50;99.90;;;8.57;100.00;101121.94;4859357;28;24836;-66
2023/12/27 06:19:46;;;;;;;5.30;3.45;;;8.50;99.90;;;8.55;100.00;101113.38;4858552;28;24435;-67
2023/12/27 06:22:08;;;;;;;5.72;3.70;;;8.40;99.90;;;8.56;100.00;101109.88;4873697;28;24749;-66
2023/12/27 06:24:31;;;;;;;5.95;3.47;;;8.50;99.90;;;8.58;100.00;101108.03;4872686;28;24527;-67
2023/12/27 06:26:53;;;;;;;5.70;3.30;;;8.50;99.90;;;8.62;100.00;101099.13;4867727;28;24454;-66
2023/12/27 06:29:15;;;;;;;8.00;4.13;;;8.60;99.90;;;8.63;100.00;101107.72;4875297;28;20779;-66
2023/12/27 06:31:37;;;;;;;5.00;3.60;;;8.50;99.90;;;8.57;100.00;101114.13;4868366;28;24538;-66
2023/12/27 06:33:59;;;;;;;4.05;3.50;;;8.50;99.90;;;8.56;100.00;101115.06;4868323;28;24550;-66
2023/12/27 06:36:22;;;;;;;7.30;3.22;;;8.50;99.90;;;8.53;100.00;101110.03;4872298;28;24455;-66
2023/12/27 06:38:46;;;;;;;5.60;3.50;;;8.50;99.90;;;8.56;100.00;101108.09;4873005;28;24463;-65
2023/12/27 06:41:08;;;;;;;4.88;3.30;;;8.50;99.90;;;8.60;100.00;101098.38;4865669;28;24431;-66
2023/12/27 06:43:31;;;;;;;5.22;3.10;;;8.50;99.90;;;8.58;100.00;101098.44;4872124;28;24653;-67
2023/12/27 06:45:55;;;;;;;3.55;3.10;;;8.50;99.90;;;8.56;100.00;101096.88;4866692;28;24478;-66
2023/12/27 06:48:17;;;;;;;5.40;3.28;;;8.50;99.90;;;8.57;100.00;101081.16;4868083;28;24546;-68
2023/12/27 06:50:39;;;;;;;4.32;3.30;;;8.50;99.90;;;8.57;100.00;101083.75;4873803;28;24435;-68
2023/12/27 06:53:01;;;;;;;5.57;3.70;;;8.50;99.90;;;8.58;100.00;101080.22;4867812;28;24907;-67
2023/12/27 06:55:23;;;;;;;4.78;3.20;;;8.50;99.90;;;8.60;100.00;101088.78;4866120;28;24458;-69
2023/12/27 06:57:44;;;;;;;6.60;3.77;;;8.50;99.90;;;8.63;100.00;101090.38;4872310;28;24579;-67
2023/12/27 07:00:07;;;;;;;5.60;3.75;;;8.50;99.90;;;8.65;100.00;101093.72;4874445;28;24428;-67
2023/12/27 07:02:30;;;;;;;5.00;3.50;;;8.50;99.90;;;8.56;100.00;101096.88;4863646;28;24458;-65
2023/12/27 07:04:52;;;;;;;5.28;3.50;;;8.50;99.90;;;8.51;100.00;101096.28;4873771;28;24481;-67
2023/12/27 07:07:14;;;;;;;4.28;3.20;;;8.50;99.90;;;8.56;100.00;101094.25;4859128;28;24530;-66
2023/12/27 07:09:36;;;;;;;4.40;3.10;;;8.40;99.90;;;8.62;100.00;101088.72;4872493;28;24467;-66
2023/12/27 07:11:58;;;;;;;4.40;3.10;;;8.50;99.90;;;8.61;100.00;101087.03;4872932;28;25063;-66
2023/12/27 07:14:20;;;;;;;5.20;3.20;;;8.50;99.90;;;8.62;100.00;101093.91;4868055;28;24821;-66
2023/12/27 07:16:42;;;;;;;6.80;3.80;;;8.50;99.90;;;8.63;100.00;101094.72;4860582;28;24463;-67
2023/12/27 07:19:04;;;;;;;5.20;3.20;;;8.50;99.90;;;8.60;100.00;101090.56;4854370;28;24524;-66
2023/12/27 07:21:26;;;;;;;4.78;3.22;;;8.50;99.90;;;8.63;100.00;101097.31;4861128;28;24502;-65
2023/12/27 07:23:48;;;;;;;5.07;3.47;;;8.50;99.90;;;8.63;100.00;101108.56;4860740;28;24451;-65
2023/12/27 07:26:13;;;;;;;7.13;3.30;;;8.50;99.90;;;8.62;100.00;101117.31;4862309;28;24477;-65
2023/12/27 07:28:35;;;;;;;3.83;3.00;;;8.50;99.90;;;8.64;100.00;101114.63;4864943;28;25074;-66
2023/12/27 07:30:58;;;;;;;3.78;3.38;;;8.50;99.90;;;8.64;100.00;101112.03;4862147;28;24490;-69
2023/12/27 07:33:20;;;;;;;4.47;3.00;;;8.50;99.90;;;8.69;100.00;101113.44;4857636;28;24817;-66
2023/12/27 07:35:45;;;;;;;4.43;3.33;;;8.50;99.90;;;8.68;100.00;101108.31;4866525;28;24506;-66
2023/12/27 07:38:07;;;;;;;6.63;3.20;;;8.60;99.90;;;8.69;100.00;101110.00;4865425;28;24793;-66
2023/12/27 07:40:29;;;;;;;3.50;3.00;;;8.60;99.90;;;8.76;99.79;101109.56;4865867;28;25062;-67
2023/12/27 07:42:51;;;;;;;3.50;3.17;;;8.60;99.90;;;8.80;99.53;101116.28;4873752;28;24527;-65
2023/12/27 07:45:13;;;;;;;4.40;3.30;;;8.70;99.90;;;8.85;99.36;101116.00;4857156;28;24446;-66
2023/12/27 07:47:35;;;;;;;5.75;3.30;;;8.70;99.90;;;8.87;98.64;101108.97;4840856;28;24569;-67
2023/12/27 07:49:58;;;;;;;6.05;3.30;;;8.70;99.90;;;8.91;99.28;101116.50;4873549;28;24472;-67
2023/12/27 07:52:21;;;;;;;7.20;3.40;;;8.70;99.90;;;8.90;98.59;101099.19;4872066;28;24820;-66
2023/12/27 07:54:43;;;;;;;3.83;3.10;;;8.80;99.90;;;8.92;97.63;101112.94;4863946;28;24440;-66
2023/12/27 07:57:05;;;;;;;5.57;3.30;;;8.80;99.90;;;8.96;97.53;101098.03;4854514;28;24456;-66
2023/12/27 07:59:27;;;;;;;7.18;3.20;;;8.80;99.90;;;8.98;97.00;101094.41;4865922;28;24432;-67
2023/12/27 08:01:49;;;;;;;5.03;3.00;;;8.90;99.90;;;9.07;96.74;101095.66;4858943;28;26859;-66
2023/12/27 08:04:11;;;;;;;6.85;3.30;;;8.90;99.90;;;9.10;96.54;101098.91;4854980;28;24426;-67
2023/12/27 08:06:33;;;;;;;4.78;2.90;;;8.90;99.90;;;9.18;95.27;101098.44;4862107;28;24451;-67
2023/12/27 08:08:59;;;;;;;4.50;2.80;;;9.00;99.90;;;9.32;94.49;101081.09;4859442;28;25075;-68
2023/12/27 08:11:22;;;;;;;5.15;3.00;;;9.10;99.90;;;9.46;93.08;101087.22;4861259;28;24443;-66
2023/12/27 08:13:44;;;;;;;4.70;2.90;;;9.30;99.90;;;9.56;92.20;101080.53;4865731;28;24864;-68
2023/12/27 08:16:07;;;;;;;3.97;2.60;;;9.40;99.90;;;9.61;91.49;101086.28;4860883;28;24550;-67
2023/12/27 08:18:29;;;;;;;4.37;2.63;;;9.40;99.90;;;9.56;91.97;101075.34;4854467;28;24526;-67
2023/12/27 08:20:52;;;;;;;4.32;2.72;;;9.40;99.90;;;9.55;91.20;101076.25;4856415;28;24515;-66
2023/12/27 08:23:16;;;;;;;5.57;2.40;;;9.40;99.90;;;9.35;92.16;101070.47;4854547;28;24860;-67
2023/12/27 08:25:38;;;;;;;4.97;2.65;;;9.30;99.90;;;9.45;91.43;101044.72;4862279;28;24868;-68
2023/12/27 08:28:01;;;;;;;4.60;2.70;;;9.30;99.90;;;9.56;90.70;101033.66;4870451;28;24438;-69
2023/12/27 08:30:23;;;;;;;5.85;3.00;;;9.40;99.90;;;9.63;90.17;101021.91;4870613;28;24786;-66
2023/12/27 08:32:45;;;;;;;6.05;3.00;;;9.40;99.90;;;9.70;90.58;101010.19;4867097;28;24539;-66
2023/12/27 08:35:07;;;;;;;7.97;3.03;;;9.50;99.90;;;9.76;89.30;101023.66;4860773;28;25011;-66
2023/12/27 08:37:29;;;;;;;6.55;3.05;;;9.60;99.90;;;9.93;87.42;101026.06;4872251;28;24457;-67
2023/12/27 08:39:51;;;;;;;5.78;2.83;;;9.70;99.90;;;10.02;86.88;101035.91;4862013;28;24977;-66
2023/12/27 08:42:13;;;;;;;4.60;3.00;;;9.80;99.90;;;10.10;86.25;101032.81;4874576;28;24429;-66
2023/12/27 08:44:35;;;;;;;3.80;2.47;;;9.90;99.90;;;10.27;85.45;101027.38;4868930;28;26064;-66
2023/12/27 08:46:57;;;;;;;3.50;2.40;;;10.00;99.90;;;10.55;83.07;101029.88;4858407;28;24435;-66
2023/12/27 08:49:19;;;;;;;3.42;2.60;;;10.30;99.90;;;10.94;80.82;101024.59;4863807;28;25539;-67
2023/12/27 08:51:41;;;;;;;2.58;2.38;;;10.60;99.90;;;11.43;79.99;101034.34;4864613;28;24543;-67
2023/12/27 08:54:03;;;;;;;4.28;2.55;;;11.00;99.90;;;12.18;76.44;101057.72;4871070;28;24520;-67
2023/12/27 08:56:25;;;;;;;2.40;2.20;;;11.50;99.90;;;12.46;74.54;101049.56;4875080;28;24547;-67
2023/12/27 08:58:47;;;;;;;2.85;2.17;;;12.00;99.90;;;12.98;71.64;101056.16;4873791;28;24428;-66
2023/12/27 09:01:09;;;;;;;4.72;2.30;;;12.40;99.90;;;12.50;71.96;101049.34;4865750;28;24486;-68
2023/12/27 09:03:31;;;;;;;2.90;2.30;;;12.40;99.90;;;11.97;73.77;101051.41;4870091;28;25051;-66
2023/12/27 09:05:54;;;;;;;5.30;2.40;;;11.90;99.90;;;11.42;76.42;101043.97;4864643;28;24494;-66
2023/12/27 09:08:16;;;;;;;2.45;2.25;;;11.50;99.90;;;11.03;77.15;101046.66;4862285;28;24448;-68
2023/12/27 09:10:38;;;;;;;3.67;2.80;;;11.10;99.90;;;10.59;79.52;101047.00;4868052;28;24512;-64
2023/12/27 09:13:00;;;;;;;2.47;2.28;;;10.70;99.90;;;10.20;82.66;101054.78;4868115;28;25080;-69
2023/12/27 09:15:22;;;;;;;3.50;2.72;;;10.30;99.90;;;9.83;84.57;101050.19;4866226;28;24439;-66
2023/12/27 09:17:47;;;;;;;3.20;2.60;;;10.00;99.90;;;9.68;85.51;101048.53;4859347;28;25015;-66
2023/12/27 09:20:10;;;;;;;4.80;2.60;;;9.80;99.90;;;9.54;86.24;101046.75;4876331;28;24427;-67
2023/12/27 09:22:32;;;;;;;4.15;2.70;;;9.60;99.90;;;9.52;86.84;101047.81;4861905;28;24442;-65
2023/12/27 09:24:54;;;;;;;2.72;2.25;;;9.50;99.90;;;9.52;86.91;101042.59;4875866;28;24432;-66
2023/12/27 09:27:17;;;;;;;4.57;2.63;;;9.40;99.90;;;9.44;86.90;101042.19;4874216;28;25054;-66
2023/12/27 09:29:40;;;;;;;4.50;2.42;;;9.40;99.90;;;9.43;86.65;101035.31;4866713;28;24449;-67
2023/12/27 09:32:02;;;;;;;5.82;2.35;;;9.40;99.90;;;9.49;86.44;101043.59;4874872;28;24548;-67
2023/12/27 09:34:24;;;;;;;7.70;2.80;;;9.40;99.90;;;9.54;85.60;101038.13;4868579;28;24447;-68
2023/12/27 09:36:46;;;;;;;4.18;2.30;;;9.40;99.90;;;9.59;85.35;101036.91;4872699;28;24513;-66
2023/12/27 09:39:11;;;;;;;2.30;2.10;;;9.40;99.90;;;9.63;85.92;101021.91;4858493;28;24490;-66
2023/12/27 09:41:34;;;;;;;2.47;2.28;;;9.50;99.90;;;9.69;85.26;101019.75;4866117;28;25225;-66
2023/12/27 09:43:58;;;;;;;4.70;2.22;;;9.50;99.90;;;9.88;83.45;101016.88;4870584;28;24481;-67
2023/12/27 09:46:21;;;;;;;2.55;1.90;;;9.60;99.90;;;9.93;84.02;101006.97;4865324;28;24531;-66
2023/12/27 09:48:45;;;;;;;2.60;2.40;;;9.80;99.90;;;10.08;83.34;100992.97;4846365;28;24489;-67
2023/12/27 09:51:11;;;;;;;3.50;2.60;;;9.80;99.90;;;10.20;82.88;100999.19;4841684;28;24535;-66
2023/12/27 09:53:36;;;;;;;6.70;2.50;;;9.90;99.90;;;10.29;82.24;101004.63;4849191;28;24493;-68
2023/12/27 09:55:59;;;;;;;2.72;2.00;;;10.00;99.90;;;10.21;83.08;101003.47;4875275;28;24457;-69
2023/12/27 09:58:24;;;;;;;2.58;2.20;;;10.10;99.90;;;10.18;84.15;101003.69;4874377;28;24525;-66